Time;durP1;ratioP1;P1;durP2;ratioP2;P2;SDS_P1;SDS_P2;PMS_P1;PMS_P2;Temp;Humidity;BMP_temperature;BMP_pressure;BME280_temperature;BME280_humidity;BME280_pressure;Samples;Min_cycle;Max_cycle;Signal;HPM_P1;HPM_P2
2022/06/13 00:01:12;;;;;;;9.60;2.25;;;13.10;99.90;;;;;;4986357;28;20027;-58
2022/06/13 00:03:39;;;;;;;13.50;3.05;;;13.00;99.90;;;;;;4990213;28;20042;-57
2022/06/13 00:06:05;;;;;;;10.68;2.63;;;13.00;99.90;;;;;;4992633;28;20023;-57
2022/06/13 00:08:31;;;;;;;7.38;2.15;;;12.90;99.90;;;;;;4990642;28;20041;-58
2022/06/13 00:10:56;;;;;;;8.70;2.50;;;12.90;99.90;;;;;;4991838;28;20035;-59
2022/06/13 00:13:22;;;;;;;6.70;2.67;;;12.80;99.90;;;;;;5002035;28;20031;-57
2022/06/13 00:15:48;;;;;;;11.20;2.30;;;12.80;99.90;;;;;;4984387;28;20473;-57
2022/06/13 00:18:14;;;;;;;7.80;2.15;;;12.70;99.90;;;;;;4989224;28;20064;-58
2022/06/13 00:20:39;;;;;;;10.25;2.42;;;12.70;99.90;;;;;;4990161;28;20030;-57
2022/06/13 00:23:05;;;;;;;10.48;3.30;;;12.60;99.90;;;;;;4990723;28;20449;-57
2022/06/13 00:25:31;;;;;;;9.52;2.40;;;12.60;99.90;;;;;;4989628;28;20037;-57
2022/06/13 00:27:57;;;;;;;12.68;2.40;;;12.60;99.90;;;;;;4990771;28;20026;-58
2022/06/13 00:30:23;;;;;;;13.90;3.10;;;12.60;99.90;;;;;;4990429;28;20395;-57
2022/06/13 00:32:50;;;;;;;11.48;3.05;;;12.50;99.90;;;;;;4987273;28;20022;-58
2022/06/13 00:35:16;;;;;;;8.30;2.47;;;12.50;99.90;;;;;;4992020;28;20034;-57
2022/06/13 00:37:42;;;;;;;13.30;2.15;;;12.50;99.90;;;;;;4990030;28;20665;-59
2022/06/13 00:40:08;;;;;;;11.23;2.15;;;12.40;99.90;;;;;;4992183;28;20026;-58
2022/06/13 00:42:34;;;;;;;7.68;2.75;;;12.40;99.90;;;;;;4987591;28;20060;-58
2022/06/13 00:45:05;;;;;;;11.32;2.25;;;12.40;99.90;;;;;;4985010;28;20478;-58
2022/06/13 00:47:31;;;;;;;13.73;2.53;;;12.40;99.90;;;;;;4990180;28;20058;-58
2022/06/13 00:49:59;;;;;;;12.57;2.67;;;12.30;99.90;;;;;;4988734;28;20101;-58
2022/06/13 00:52:31;;;;;;;10.00;2.22;;;12.30;99.90;;;;;;4990120;28;20030;-57
2022/06/13 00:54:57;;;;;;;10.93;2.70;;;12.30;99.90;;;;;;4991723;28;20117;-57
2022/06/13 00:57:28;;;;;;;13.65;2.47;;;12.30;99.90;;;;;;4987879;28;20117;-57
2022/06/13 01:00:01;;;;;;;8.82;2.40;;;12.30;99.90;;;;;;4990227;28;20549;-57
2022/06/13 01:02:27;;;;;;;15.32;3.95;;;12.30;99.90;;;;;;4989648;28;20478;-58
2022/06/13 01:04:53;;;;;;;10.23;2.67;;;12.20;99.90;;;;;;4991517;28;20738;-58
2022/06/13 01:07:20;;;;;;;11.63;2.92;;;12.20;99.90;;;;;;4991696;28;20470;-58
2022/06/13 01:12:34;;;;;;;9.15;2.40;;;12.10;99.90;;;;;;4986422;28;20501;-57
2022/06/13 01:15:31;;;;;;;11.93;3.40;;;12.00;99.90;;;;;;4989947;28;20029;-57
2022/06/13 01:18:17;;;;;;;11.10;3.88;;;12.00;99.90;;;;;;4984478;28;20501;-57
2022/06/13 01:21:21;;;;;;;11.23;2.40;;;12.00;99.90;;;;;;4989060;28;20392;-57
2022/06/13 01:23:50;;;;;;;9.18;2.30;;;11.90;99.90;;;;;;4988520;28;20042;-58
2022/06/13 01:26:39;;;;;;;9.65;3.42;;;11.90;99.90;;;;;;4990749;28;20069;-58
2022/06/13 01:29:26;;;;;;;11.82;3.13;;;11.80;99.90;;;;;;4979233;28;20088;-57
2022/06/13 01:31:55;;;;;;;9.73;2.67;;;11.80;99.90;;;;;;4984763;28;20101;-58
2022/06/13 01:34:51;;;;;;;14.02;3.45;;;11.70;99.90;;;;;;4990558;28;20026;-57
2022/06/13 01:37:17;;;;;;;16.15;2.72;;;11.70;99.90;;;;;;4986955;28;20034;-58
2022/06/13 01:40:04;;;;;;;9.25;2.72;;;11.70;99.90;;;;;;4989220;28;20514;-57
2022/06/13 01:42:50;;;;;;;11.02;2.70;;;11.70;99.90;;;;;;4987905;28;20042;-58
2022/06/13 01:45:35;;;;;;;10.13;2.13;;;11.60;99.90;;;;;;4986936;28;20061;-58
2022/06/13 01:48:06;;;;;;;22.20;3.05;;;11.60;99.90;;;;;;4986011;28;20506;-58
2022/06/13 01:50:50;;;;;;;8.68;2.60;;;11.60;99.90;;;;;;4984021;28;20023;-58
2022/06/13 01:53:47;;;;;;;16.98;3.42;;;11.60;99.90;;;;;;4988229;28;20574;-58
2022/06/13 01:56:15;;;;;;;8.85;2.60;;;11.60;99.90;;;;;;4988696;28;20036;-58
2022/06/13 01:59:12;;;;;;;12.90;2.90;;;11.60;99.90;;;;;;4987629;28;20026;-58
2022/06/13 02:01:47;;;;;;;11.38;3.03;;;11.60;99.90;;;;;;4985548;28;20027;-58
2022/06/13 02:04:19;;;;;;;10.82;2.72;;;11.50;99.90;;;;;;4988602;28;20038;-58
2022/06/13 02:07:02;;;;;;;10.85;2.25;;;11.50;99.90;;;;;;4985347;28;20034;-58
2022/06/13 02:09:34;;;;;;;14.77;3.80;;;11.50;99.90;;;;;;4982957;28;22190;-57
2022/06/13 02:12:00;;;;;;;7.75;3.78;;;11.50;99.90;;;;;;4983630;28;20010;-58
2022/06/13 02:14:41;;;;;;;11.85;2.95;;;11.50;99.90;;;;;;4986265;28;20038;-58
2022/06/13 02:17:18;;;;;;;12.00;3.00;;;11.60;99.90;;;;;;4986297;28;20038;-59
2022/06/13 02:20:08;;;;;;;13.88;2.65;;;11.50;99.90;;;;;;4989173;28;20058;-58
2022/06/13 02:22:42;;;;;;;12.57;3.70;;;11.60;99.90;;;;;;4988042;28;20034;-57
2022/06/13 02:25:30;;;;;;;10.18;3.40;;;11.60;99.90;;;;;;4989105;28;20084;-57
2022/06/13 02:28:03;;;;;;;9.50;2.70;;;11.60;99.90;;;;;;4988128;28;20056;-57
2022/06/13 02:30:40;;;;;;;10.40;2.63;;;11.50;99.90;;;;;;4987989;28;20026;-57
2022/06/13 02:33:12;;;;;;;9.48;2.53;;;11.50;99.90;;;;;;4989551;28;20068;-57
2022/06/13 02:35:51;;;;;;;9.80;2.80;;;11.50;99.90;;;;;;4991747;28;20046;-57
2022/06/13 02:38:29;;;;;;;10.90;2.30;;;11.50;99.90;;;;;;4989393;28;20034;-58
2022/06/13 02:41:06;;;;;;;13.82;2.78;;;11.50;99.90;;;;;;4989302;28;20030;-57
2022/06/13 02:43:52;;;;;;;12.52;3.53;;;11.50;99.90;;;;;;4983338;28;20046;-59
2022/06/13 02:46:27;;;;;;;13.48;2.63;;;11.50;99.90;;;;;;4985769;28;20077;-57
2022/06/13 02:49:01;;;;;;;12.38;2.85;;;11.40;99.90;;;;;;4988890;28;20410;-57
2022/06/13 02:51:41;;;;;;;12.43;2.88;;;11.40;99.90;;;;;;4987139;28;20027;-58
2022/06/13 02:54:25;;;;;;;9.82;3.03;;;11.30;99.90;;;;;;4989431;28;20545;-61
2022/06/13 02:57:23;;;;;;;11.68;2.17;;;11.30;99.90;;;;;;4984388;28;20505;-60
2022/06/13 03:00:14;;;;;;;11.68;3.20;;;11.30;99.90;;;;;;4989436;28;20069;-57
2022/06/13 03:03:01;;;;;;;11.98;2.58;;;11.30;99.90;;;;;;4985904;28;20038;-58
2022/06/13 03:05:51;;;;;;;20.15;4.57;;;11.20;99.90;;;;;;4987451;28;20076;-61
2022/06/13 03:08:35;;;;;;;13.38;2.92;;;11.20;99.90;;;;;;4987989;28;20027;-58
2022/06/13 03:11:28;;;;;;;11.05;2.92;;;11.20;99.90;;;;;;4983361;28;20062;-57
2022/06/13 03:14:06;;;;;;;15.65;3.28;;;11.30;99.90;;;;;;4987825;28;20074;-57
2022/06/13 03:16:54;;;;;;;10.20;3.08;;;11.20;99.90;;;;;;4985942;28;20057;-58
2022/06/13 03:19:41;;;;;;;7.57;2.67;;;11.20;99.90;;;;;;4988882;28;20123;-57
2022/06/13 03:22:22;;;;;;;11.43;3.05;;;11.20;99.90;;;;;;4980663;28;20474;-62
2022/06/13 03:24:52;;;;;;;11.98;2.88;;;11.20;99.90;;;;;;4991909;28;20548;-57
2022/06/13 03:27:26;;;;;;;10.63;2.42;;;11.20;99.90;;;;;;5000673;28;20491;-57
2022/06/13 03:29:58;;;;;;;14.57;3.00;;;11.30;99.90;;;;;;4991771;28;20038;-58
2022/06/13 03:32:28;;;;;;;7.38;3.05;;;11.30;99.90;;;;;;4989954;28;20160;-56
2022/06/13 03:35:00;;;;;;;9.05;2.55;;;11.30;99.90;;;;;;4993087;28;20089;-57
2022/06/13 03:37:52;;;;;;;9.65;3.10;;;11.20;99.90;;;;;;4990651;28;20101;-57
2022/06/13 03:40:22;;;;;;;12.32;2.85;;;11.20;99.90;;;;;;4987160;28;20030;-57
2022/06/13 03:42:58;;;;;;;6.53;2.63;;;11.20;99.90;;;;;;4983478;28;20061;-56
2022/06/13 03:45:31;;;;;;;7.28;2.38;;;11.30;99.90;;;;;;4990830;28;20042;-57
2022/06/13 03:48:10;;;;;;;10.93;3.42;;;11.20;99.90;;;;;;4992585;28;20050;-57
2022/06/13 03:50:40;;;;;;;9.85;2.63;;;11.20;99.90;;;;;;4986094;28;20026;-58
2022/06/13 03:53:52;;;;;;;10.88;2.47;;;11.30;99.90;;;;;;4990675;28;20081;-58
2022/06/13 03:56:41;;;;;;;12.25;2.42;;;11.20;99.90;;;;;;4991608;28;20041;-58
2022/06/13 03:59:31;;;;;;;17.15;2.80;;;11.20;99.90;;;;;;4969125;28;20063;-58
2022/06/13 04:02:08;;;;;;;9.20;2.55;;;11.30;99.90;;;;;;4971927;28;20031;-57
2022/06/13 04:04:39;;;;;;;8.82;2.40;;;11.30;99.90;;;;;;4974337;28;20059;-57
2022/06/13 04:07:05;;;;;;;10.88;2.55;;;11.30;99.90;;;;;;4971088;28;20027;-58
2022/06/13 04:09:36;;;;;;;11.52;2.92;;;11.20;99.90;;;;;;4967656;28;20054;-58
2022/06/13 04:12:25;;;;;;;12.98;2.20;;;11.30;99.90;;;;;;4972100;28;20023;-57
2022/06/13 04:15:09;;;;;;;8.80;2.58;;;11.30;99.90;;;;;;4973137;28;20096;-57
2022/06/13 04:18:13;;;;;;;10.07;2.60;;;11.40;99.90;;;;;;4972913;28;20039;-57
2022/06/13 04:21:27;;;;;;;8.48;2.58;;;11.40;99.90;;;;;;4924484;29;20040;-57
2022/06/13 04:24:11;;;;;;;10.52;2.78;;;11.40;99.90;;;;;;4927913;29;20164;-58
2022/06/13 04:26:57;;;;;;;12.73;3.33;;;11.40;99.90;;;;;;4925891;29;20047;-58
2022/06/13 04:29:54;;;;;;;10.05;2.63;;;11.40;99.90;;;;;;4922950;29;20068;-57
2022/06/13 04:32:24;;;;;;;8.90;2.90;;;11.40;99.90;;;;;;4929765;29;20031;-58
2022/06/13 04:34:52;;;;;;;9.25;2.72;;;11.40;99.90;;;;;;4924295;29;20119;-58
2022/06/13 04:37:21;;;;;;;9.02;3.63;;;11.40;99.90;;;;;;4922437;29;20407;-58
2022/06/13 04:39:49;;;;;;;5.70;2.53;;;11.40;99.90;;;;;;4931874;29;20114;-57
2022/06/13 04:42:17;;;;;;;9.82;2.53;;;11.40;99.90;;;;;;4931677;29;20044;-57
2022/06/13 04:44:44;;;;;;;12.40;2.65;;;11.40;99.90;;;;;;4928894;29;20677;-58
2022/06/13 04:47:14;;;;;;;7.72;2.60;;;11.40;99.90;;;;;;4931865;29;20031;-58
2022/06/13 04:49:54;;;;;;;21.73;2.75;;;11.40;99.90;;;;;;4929681;29;20172;-57
2022/06/13 04:52:31;;;;;;;11.60;2.28;;;11.50;99.90;;;;;;4930516;29;20034;-58
2022/06/13 04:55:16;;;;;;;10.80;2.60;;;11.50;99.90;;;;;;4968157;28;20038;-58
2022/06/13 04:57:41;;;;;;;11.18;2.88;;;11.50;99.90;;;;;;4987046;28;20069;-58
2022/06/13 05:00:09;;;;;;;8.18;3.00;;;11.60;99.90;;;;;;4984037;28;20054;-57
2022/06/13 05:02:44;;;;;;;10.25;2.95;;;11.60;99.90;;;;;;4987571;28;20022;-59
2022/06/13 05:05:44;;;;;;;7.32;2.78;;;11.60;99.90;;;;;;4990515;28;20066;-58
2022/06/13 05:08:29;;;;;;;8.63;2.63;;;11.80;99.90;;;;;;4987607;28;20520;-58
2022/06/13 05:11:02;;;;;;;10.68;2.35;;;11.80;99.90;;;;;;4985085;28;20053;-58
2022/06/13 05:13:28;;;;;;;7.82;2.85;;;11.80;99.90;;;;;;4987185;28;20490;-57
2022/06/13 05:16:26;;;;;;;8.57;2.90;;;11.90;99.90;;;;;;4989373;28;20049;-57
2022/06/13 05:18:55;;;;;;;17.35;3.60;;;11.90;99.90;;;;;;4988562;28;20034;-58
2022/06/13 05:21:44;;;;;;;6.68;2.47;;;12.00;99.90;;;;;;4990137;28;20026;-58
2022/06/13 05:24:38;;;;;;;13.18;2.40;;;12.00;99.90;;;;;;4989387;28;20503;-57
2022/06/13 05:27:06;;;;;;;13.50;2.60;;;11.90;99.90;;;;;;4989563;28;20031;-57
2022/06/13 05:29:32;;;;;;;12.25;2.45;;;12.00;99.90;;;;;;4988987;28;20032;-57
2022/06/13 05:31:58;;;;;;;10.43;3.17;;;12.10;99.90;;;;;;4990215;28;20423;-57
2022/06/13 05:34:33;;;;;;;15.13;2.85;;;12.10;99.90;;;;;;4988369;28;20072;-56
2022/06/13 05:37:00;;;;;;;8.98;2.60;;;12.10;99.90;;;;;;4990685;28;20033;-58
2022/06/13 05:39:26;;;;;;;7.57;3.65;;;12.20;99.90;;;;;;4987037;28;20030;-57
2022/06/13 05:41:51;;;;;;;7.20;2.08;;;12.20;99.90;;;;;;4990364;28;20038;-58
2022/06/13 05:44:17;;;;;;;7.32;2.50;;;12.10;99.90;;;;;;4990074;28;20034;-58
2022/06/13 05:46:44;;;;;;;6.93;2.63;;;12.20;99.90;;;;;;4987660;28;20798;-57
2022/06/13 05:49:12;;;;;;;12.65;3.90;;;12.30;99.90;;;;;;4990123;28;20553;-60
2022/06/13 05:51:39;;;;;;;11.38;2.65;;;12.30;99.90;;;;;;4989486;28;20056;-57
2022/06/13 05:54:05;;;;;;;7.75;2.50;;;12.30;99.90;;;;;;4989585;28;20375;-57
2022/06/13 05:56:31;;;;;;;10.57;2.63;;;12.40;99.90;;;;;;4987129;28;20027;-57
2022/06/13 05:58:57;;;;;;;15.18;2.63;;;12.30;99.90;;;;;;4990551;28;20037;-58
2022/06/13 06:01:23;;;;;;;7.78;2.50;;;12.40;99.90;;;;;;4990245;28;20034;-58
2022/06/13 06:03:49;;;;;;;11.13;2.50;;;12.40;99.90;;;;;;4989807;28;20106;-57
2022/06/13 06:06:26;;;;;;;7.72;3.40;;;12.50;99.90;;;;;;4990336;28;20035;-59
2022/06/13 06:08:55;;;;;;;9.32;3.00;;;12.50;99.90;;;;;;4989410;28;20483;-57
2022/06/13 06:11:23;;;;;;;15.68;2.90;;;12.50;99.90;;;;;;4988512;28;20079;-59
2022/06/13 06:13:49;;;;;;;10.05;3.17;;;12.50;99.90;;;;;;4988797;28;20034;-58
2022/06/13 06:16:17;;;;;;;9.63;2.40;;;12.60;99.90;;;;;;4989677;28;20378;-58
2022/06/13 06:18:43;;;;;;;11.10;2.40;;;12.60;99.90;;;;;;4988455;28;20602;-58
2022/06/13 06:21:09;;;;;;;12.77;2.78;;;12.70;99.90;;;;;;4989757;28;20497;-58
2022/06/13 06:23:35;;;;;;;15.45;3.15;;;12.70;99.90;;;;;;4987512;28;20038;-58
2022/06/13 06:26:02;;;;;;;13.52;2.60;;;12.70;99.90;;;;;;4989021;28;20033;-59
2022/06/13 06:28:28;;;;;;;9.88;2.20;;;12.80;99.90;;;;;;4987019;28;20038;-57
2022/06/13 06:30:57;;;;;;;6.22;1.98;;;12.80;99.90;;;;;;4989102;28;20482;-57
2022/06/13 06:33:24;;;;;;;8.20;2.00;;;12.90;99.90;;;;;;4988712;28;20073;-59
2022/06/13 06:35:53;;;;;;;15.20;3.35;;;12.90;99.90;;;;;;4988444;28;20027;-57
2022/06/13 06:38:21;;;;;;;6.05;1.88;;;12.90;99.90;;;;;;4989506;28;20047;-58
2022/06/13 06:40:47;;;;;;;7.60;2.40;;;12.90;99.90;;;;;;4987737;28;20034;-59
2022/06/13 06:43:14;;;;;;;8.90;2.33;;;12.90;99.90;;;;;;4989578;28;20049;-58
2022/06/13 06:45:42;;;;;;;6.57;2.30;;;13.00;99.90;;;;;;4987628;28;20504;-58
2022/06/13 06:48:14;;;;;;;8.20;2.42;;;13.10;99.90;;;;;;4988272;28;20019;-58
2022/06/13 06:50:43;;;;;;;9.57;2.40;;;13.20;99.90;;;;;;4987403;28;20030;-57
2022/06/13 06:53:10;;;;;;;13.18;2.22;;;13.20;99.90;;;;;;4988823;28;20160;-58
2022/06/13 07:01:07;;;;;;;12.65;2.75;;;13.30;99.90;;;;;;4993489;28;20034;-57
2022/06/13 07:03:33;;;;;;;11.63;2.33;;;13.40;99.90;;;;;;4990832;28;20037;-57
2022/06/13 07:05:59;;;;;;;5.68;2.15;;;13.50;99.90;;;;;;4992054;28;20030;-58
2022/06/13 07:08:25;;;;;;;6.97;1.83;;;13.50;99.90;;;;;;4991560;28;20073;-58
2022/06/13 07:10:51;;;;;;;6.57;2.20;;;13.60;99.90;;;;;;4992991;28;20105;-57
2022/06/13 07:13:18;;;;;;;15.15;2.45;;;13.70;99.90;;;;;;4992939;28;20104;-59
2022/06/13 07:15:46;;;;;;;8.55;2.67;;;13.70;99.90;;;;;;4991442;28;20474;-58
2022/06/13 07:18:11;;;;;;;4.28;1.83;;;13.80;99.90;;;;;;4992812;28;20026;-58
2022/06/13 07:20:38;;;;;;;10.60;3.45;;;13.80;99.90;;;;;;4990487;28;20569;-58
2022/06/13 07:23:04;;;;;;;11.45;2.35;;;13.90;99.90;;;;;;4992378;28;20108;-58
2022/06/13 07:25:31;;;;;;;10.88;2.10;;;14.00;99.90;;;;;;4985434;28;20151;-57
2022/06/13 07:27:57;;;;;;;8.00;2.20;;;14.10;99.90;;;;;;4988129;28;20030;-58
2022/06/13 07:30:26;;;;;;;7.68;2.40;;;14.30;99.90;;;;;;4985228;28;20121;-57
2022/06/13 07:32:54;;;;;;;7.10;2.22;;;14.30;99.90;;;;;;4988115;28;20031;-58
2022/06/13 07:35:21;;;;;;;11.05;2.05;;;14.50;99.90;;;;;;4990613;28;20027;-58
2022/06/13 07:40:32;;;;;;;5.72;1.88;;;14.50;99.90;;;;;;4984661;28;20121;-58
2022/06/13 07:43:01;;;;;;;6.82;1.95;;;14.70;99.90;;;;;;4988972;28;20043;-59
2022/06/13 07:45:30;;;;;;;8.10;1.95;;;14.70;99.90;;;;;;4986347;28;20082;-57
2022/06/13 07:47:57;;;;;;;8.10;1.65;;;14.80;99.90;;;;;;4988814;28;20114;-58
2022/06/13 07:50:25;;;;;;;8.20;2.25;;;14.90;99.90;;;;;;4984409;28;20477;-58
2022/06/13 07:52:52;;;;;;;7.60;1.90;;;15.00;99.90;;;;;;4991956;28;20026;-58
2022/06/13 07:55:19;;;;;;;6.47;1.73;;;15.00;99.90;;;;;;4991313;28;20037;-58
2022/06/13 07:57:46;;;;;;;11.52;1.65;;;15.10;99.90;;;;;;4983131;28;20088;-58
2022/06/13 08:00:20;;;;;;;7.72;2.28;;;15.10;99.90;;;;;;4986734;28;20045;-58
2022/06/13 08:02:46;;;;;;;13.80;2.30;;;15.20;99.90;;;;;;4980429;28;20031;-59
2022/06/13 08:05:12;;;;;;;6.38;1.50;;;15.30;99.90;;;;;;4982923;28;20048;-58
2022/06/13 08:07:39;;;;;;;3.03;1.08;;;15.30;99.90;;;;;;4987768;28;20050;-58
2022/06/13 08:10:05;;;;;;;8.30;1.58;;;15.30;99.90;;;;;;4988815;28;20023;-58
2022/06/13 08:12:31;;;;;;;7.63;1.40;;;15.50;99.90;;;;;;4988264;28;20015;-58
2022/06/13 08:14:57;;;;;;;8.90;1.48;;;15.50;99.90;;;;;;4985680;28;20033;-58
2022/06/13 08:17:23;;;;;;;9.25;1.63;;;15.60;99.90;;;;;;4985207;28;20034;-58
2022/06/13 08:19:52;;;;;;;5.43;1.55;;;15.70;99.90;;;;;;4989528;28;20450;-58
2022/06/13 08:22:18;;;;;;;6.40;1.60;;;15.70;99.90;;;;;;4987193;28;20064;-59
2022/06/13 08:24:44;;;;;;;2.92;0.98;;;15.70;99.90;;;;;;4988374;28;20037;-59
2022/06/13 08:27:10;;;;;;;4.53;1.10;;;15.90;99.90;;;;;;4982205;28;20029;-59
2022/06/13 08:29:36;;;;;;;3.42;0.60;;;16.00;99.90;;;;;;4981661;28;20402;-59
2022/06/13 08:32:03;;;;;;;2.50;0.82;;;16.00;99.90;;;;;;4989998;28;20034;-58
2022/06/13 08:34:30;;;;;;;3.55;0.55;;;16.10;99.90;;;;;;4988479;28;20037;-58
2022/06/13 08:36:56;;;;;;;5.57;1.02;;;16.10;99.90;;;;;;4990419;28;20061;-59
2022/06/13 08:39:23;;;;;;;4.43;1.00;;;16.20;99.90;;;;;;4989798;28;20034;-58
2022/06/13 08:42:07;;;;;;;1.10;0.80;;;16.40;99.90;;;;;;4990362;28;20031;-59
2022/06/13 08:44:58;;;;;;;5.15;0.80;;;16.50;99.90;;;;;;4986958;28;20109;-58
2022/06/13 08:48:01;;;;;;;2.88;0.98;;;16.60;99.90;;;;;;4991183;28;20093;-59
2022/06/13 08:50:33;;;;;;;4.07;1.40;;;16.70;99.90;;;;;;4984100;28;20035;-59
2022/06/13 08:53:24;;;;;;;2.53;0.60;;;16.70;99.90;;;;;;4989540;28;20026;-58
2022/06/13 08:56:05;;;;;;;5.45;0.88;;;16.80;99.90;;;;;;4985553;28;20187;-58
2022/06/13 08:58:38;;;;;;;1.90;0.65;;;16.80;99.90;;;;;;4985898;28;20544;-59
2022/06/13 09:01:34;;;;;;;3.03;0.60;;;16.90;99.90;;;;;;4988330;28;20083;-58
2022/06/13 09:04:14;;;;;;;1.42;0.40;;;17.10;99.90;;;;;;4985042;28;20045;-58
2022/06/13 09:07:01;;;;;;;2.97;0.65;;;17.20;99.90;;;;;;4987953;28;20064;-58
2022/06/13 09:09:43;;;;;;;5.68;0.95;;;17.50;99.90;;;;;;4985472;28;20034;-58
2022/06/13 09:12:15;;;;;;;4.43;0.52;;;17.70;99.90;;;;;;4989310;28;20076;-58
2022/06/13 09:15:01;;;;;;;3.50;0.80;;;17.90;99.90;;;;;;4983786;28;20061;-58
2022/06/13 09:17:47;;;;;;;3.08;0.77;;;18.00;99.90;;;;;;4985215;28;20387;-59
2022/06/13 09:20:46;;;;;;;3.03;0.60;;;18.20;99.90;;;;;;4986287;28;20085;-59
2022/06/13 09:23:36;;;;;;;3.42;0.60;;;18.40;99.00;;;;;;4987466;28;20022;-59
2022/06/13 09:26:46;;;;;;;1.40;0.63;;;18.50;99.10;;;;;;4977693;28;20026;-58
2022/06/13 09:29:24;;;;;;;2.05;0.40;;;18.80;99.20;;;;;;4974871;28;20049;-58
2022/06/13 09:32:05;;;;;;;2.25;0.43;;;18.80;97.70;;;;;;4980488;28;20027;-58
2022/06/13 09:34:42;;;;;;;1.55;0.50;;;18.60;97.30;;;;;;4982087;28;20173;-58
2022/06/13 09:37:08;;;;;;;2.33;0.57;;;18.40;98.10;;;;;;4983502;28;20109;-58
2022/06/13 09:39:35;;;;;;;2.72;0.50;;;18.40;98.40;;;;;;4985188;28;20026;-58
2022/06/13 09:42:15;;;;;;;3.13;0.77;;;18.30;98.70;;;;;;4986458;28;20129;-58
2022/06/13 09:45:27;;;;;;;3.10;0.60;;;18.30;98.60;;;;;;4983674;28;20045;-58
2022/06/13 09:48:04;;;;;;;3.13;0.60;;;18.60;97.30;;;;;;4972830;28;20035;-58
2022/06/13 09:50:52;;;;;;;2.00;0.60;;;18.90;97.20;;;;;;4984995;28;20478;-58
2022/06/13 09:53:42;;;;;;;1.42;0.50;;;18.90;97.70;;;;;;4983417;28;20045;-58
2022/06/13 09:56:17;;;;;;;2.45;0.60;;;18.90;97.20;;;;;;4984366;28;20441;-58
2022/06/13 09:58:53;;;;;;;3.03;0.60;;;19.00;95.90;;;;;;4986110;28;20042;-59
2022/06/13 10:01:46;;;;;;;3.03;0.77;;;19.20;96.20;;;;;;4986496;28;20034;-59
2022/06/13 10:04:19;;;;;;;;;;;19.40;95.50;;;;;;4978915;28;20073;-58
2022/06/13 10:06:54;;;;;;;2.50;0.82;;;19.80;93.70;;;;;;4979796;28;20437;-58
2022/06/13 10:09:47;;;;;;;0.98;0.50;;;20.10;93.20;;;;;;4985139;28;20113;-58
2022/06/13 10:12:29;;;;;;;1.75;0.50;;;20.30;91.20;;;;;;4981055;28;20030;-58
2022/06/13 10:15:23;;;;;;;5.15;1.55;;;20.30;90.10;;;;;;4982227;28;20494;-58
2022/06/13 10:18:21;;;;;;;2.92;0.57;;;20.40;90.80;;;;;;4983382;28;20382;-58
2022/06/13 10:21:11;;;;;;;2.47;0.70;;;20.40;90.40;;;;;;4985831;28;20018;-58
2022/06/13 10:24:21;;;;;;;2.78;1.00;;;20.70;89.10;;;;;;4983682;28;20074;-58
2022/06/13 10:27:12;;;;;;;2.55;1.10;;;21.20;84.10;;;;;;4986212;28;20034;-58
2022/06/13 10:30:11;;;;;;;1.48;0.38;;;21.00;82.10;;;;;;4988139;28;20109;-58
2022/06/13 10:33:12;;;;;;;1.88;0.70;;;20.80;80.10;;;;;;4981552;28;20035;-56
2022/06/13 10:36:01;;;;;;;2.55;0.80;;;20.80;78.80;;;;;;4985420;28;20057;-56
2022/06/13 10:38:43;;;;;;;2.08;0.40;;;21.40;76.90;;;;;;4985969;28;20120;-56
2022/06/13 10:41:10;;;;;;;1.40;0.50;;;21.50;77.60;;;;;;4985560;28;20394;-57
2022/06/13 10:43:37;;;;;;;1.45;0.47;;;21.40;80.50;;;;;;4980694;28;20054;-58
2022/06/13 10:46:06;;;;;;;4.70;0.77;;;21.20;78.50;;;;;;4987008;28;20021;-57
2022/06/13 10:48:41;;;;;;;1.27;0.30;;;21.00;80.10;;;;;;4978692;28;20029;-57
2022/06/13 10:51:07;;;;;;;1.85;0.90;;;20.60;79.90;;;;;;4985991;28;20136;-58
2022/06/13 10:53:43;;;;;;;3.17;0.60;;;20.90;78.30;;;;;;4983823;28;20038;-59
2022/06/13 10:56:18;;;;;;;0.88;0.30;;;21.50;75.90;;;;;;4983815;28;20040;-57
2022/06/13 10:58:53;;;;;;;3.58;0.80;;;22.10;72.70;;;;;;4983634;28;20019;-56
2022/06/13 11:01:23;;;;;;;3.65;0.50;;;22.30;70.10;;;;;;4986135;28;20038;-56
2022/06/13 11:04:05;;;;;;;2.50;0.70;;;22.40;67.40;;;;;;4986812;28;20042;-56
2022/06/13 11:07:21;;;;;;;2.10;0.68;;;22.70;64.90;;;;;;4985409;28;20502;-56
2022/06/13 11:09:54;;;;;;;2.10;0.63;;;22.80;63.30;;;;;;4983707;28;20116;-56
2022/06/13 11:12:36;;;;;;;4.18;0.70;;;22.50;65.00;;;;;;4984892;28;20033;-56
2022/06/13 11:23:55;;;;;;;2.97;0.95;;;23.10;65.10;;;;;;4985867;28;20156;-58
2022/06/13 11:29:15;;;;;;;1.95;0.80;;;22.80;63.00;;;;;;4978410;28;20041;-57
2022/06/13 11:31:56;;;;;;;2.53;0.98;;;23.70;73.50;;;;;;4981360;28;20030;-57
2022/06/13 11:34:28;;;;;;;4.65;1.50;;;23.80;77.70;;;;;;4984168;28;20476;-58
2022/06/13 11:37:21;;;;;;;5.38;1.00;;;23.40;79.30;;;;;;4984120;28;20077;-57
2022/06/13 11:39:49;;;;;;;4.53;0.90;;;23.00;79.00;;;;;;4978521;28;20031;-57
2022/06/13 11:42:23;;;;;;;4.13;1.30;;;22.60;80.50;;;;;;4984973;28;20064;-57
2022/06/13 11:44:55;;;;;;;4.30;1.00;;;21.40;84.30;;;;;;4985662;28;20438;-57
2022/06/13 11:47:21;;;;;;;3.50;1.38;;;21.10;87.50;;;;;;4991439;28;20030;-56
2022/06/13 11:49:52;;;;;;;2.75;0.68;;;20.40;91.00;;;;;;4989037;28;20030;-57
2022/06/13 11:55:25;;;;;;;4.03;0.98;;;20.40;91.50;;;;;;4991279;28;20037;-58
2022/06/13 11:57:56;;;;;;;5.10;1.02;;;20.10;91.60;;;;;;4982405;28;20022;-56
2022/06/13 12:00:31;;;;;;;3.13;1.15;;;21.00;91.20;;;;;;4987621;28;20018;-56
2022/06/13 12:03:18;;;;;;;4.43;0.88;;;21.50;91.00;;;;;;4989572;28;20030;-57
2022/06/13 12:05:47;;;;;;;6.10;1.00;;;22.00;86.60;;;;;;4987545;28;20046;-59
2022/06/13 12:08:15;;;;;;;6.97;1.23;;;22.20;85.50;;;;;;4991167;28;20022;-58
2022/06/13 12:10:57;;;;;;;3.38;1.48;;;22.20;84.80;;;;;;4988710;28;20038;-57
2022/06/13 12:13:24;;;;;;;2.78;1.02;;;22.10;86.60;;;;;;4989449;28;20121;-56
2022/06/13 12:15:53;;;;;;;4.07;1.20;;;21.80;85.00;;;;;;4986703;28;20375;-57
2022/06/13 12:18:34;;;;;;;4.00;1.10;;;21.60;87.00;;;;;;4988478;28;20054;-58
2022/06/13 12:21:05;;;;;;;4.80;1.10;;;21.10;88.00;;;;;;4987673;28;20351;-57
2022/06/13 12:23:39;;;;;;;4.65;1.25;;;20.80;87.40;;;;;;4982559;28;20482;-57
2022/06/13 12:26:33;;;;;;;4.68;1.00;;;20.50;87.50;;;;;;4989738;28;20041;-56
2022/06/13 12:29:11;;;;;;;5.13;0.95;;;20.80;88.90;;;;;;4984341;28;20057;-57
2022/06/13 12:31:55;;;;;;;6.10;1.45;;;21.80;84.50;;;;;;4987293;28;20042;-58
2022/06/13 12:34:39;;;;;;;5.85;1.00;;;23.00;82.00;;;;;;4989332;28;20023;-58
2022/06/13 12:37:14;;;;;;;4.10;1.23;;;24.40;73.20;;;;;;4989865;28;20037;-57
2022/06/13 12:39:46;;;;;;;9.77;2.38;;;25.40;66.70;;;;;;4981277;28;20030;-58
2022/06/13 12:42:39;;;;;;;4.85;0.80;;;25.20;62.00;;;;;;4990684;28;20042;-58
2022/06/13 12:45:23;;;;;;;4.50;1.23;;;24.50;63.00;;;;;;4989570;28;20188;-58
2022/06/13 12:47:52;;;;;;;4.85;1.10;;;23.80;64.00;;;;;;4986474;28;20524;-57
2022/06/13 12:50:33;;;;;;;3.42;2.28;;;22.80;71.10;;;;;;4985692;28;20125;-57
2022/06/13 12:53:18;;;;;;;2.42;0.75;;;22.90;68.20;;;;;;4989707;28;20072;-57
2022/06/13 12:55:50;;;;;;;2.45;0.77;;;23.40;64.70;;;;;;4986338;28;20026;-58
2022/06/13 12:58:34;;;;;;;2.70;0.93;;;24.60;61.70;;;;;;4987744;28;20058;-57
2022/06/13 13:01:12;;;;;;;5.75;2.10;;;24.70;60.30;;;;;;4986848;28;20104;-57
2022/06/13 13:04:32;;;;;;;4.95;1.08;;;24.60;59.60;;;;;;4986239;28;20406;-57
2022/06/13 13:07:13;;;;;;;2.70;0.85;;;25.40;58.40;;;;;;4987467;28;20037;-57
2022/06/13 13:09:47;;;;;;;1.63;0.93;;;25.30;56.90;;;;;;4983771;28;20160;-56
2022/06/13 13:12:47;;;;;;;3.53;1.00;;;24.30;59.40;;;;;;4986099;28;20026;-58
2022/06/13 13:15:41;;;;;;;3.00;1.15;;;24.00;62.10;;;;;;4959232;28;20034;-57
2022/06/13 13:18:31;;;;;;;3.47;0.82;;;24.50;55.80;;;;;;4947110;28;20154;-58
2022/06/13 13:21:21;;;;;;;4.78;1.40;;;24.50;54.50;;;;;;4943090;28;20043;-58
2022/06/13 13:23:52;;;;;;;3.95;0.98;;;24.40;55.40;;;;;;4947651;28;20043;-57
2022/06/13 13:26:27;;;;;;;6.05;1.17;;;24.10;57.80;;;;;;4948081;28;20209;-57
2022/06/13 13:29:04;;;;;;;2.53;1.00;;;24.40;57.90;;;;;;4947141;28;20031;-57
2022/06/13 13:31:49;;;;;;;3.90;0.70;;;23.40;58.60;;;;;;4940783;28;20042;-58
2022/06/13 13:34:20;;;;;;;3.28;1.00;;;22.90;58.50;;;;;;4946029;28;20039;-57
2022/06/13 13:37:04;;;;;;;6.68;1.83;;;22.50;58.70;;;;;;4942158;28;20059;-57
2022/06/13 13:39:42;;;;;;;5.10;1.40;;;22.40;60.30;;;;;;4940394;28;20447;-57
2022/06/13 13:42:20;;;;;;;4.97;0.85;;;22.40;62.30;;;;;;4952567;28;20078;-58
2022/06/13 13:44:56;;;;;;;3.17;0.90;;;22.60;61.20;;;;;;4941930;28;20640;-57
2022/06/13 13:47:23;;;;;;;3.00;0.80;;;23.30;61.00;;;;;;4943443;28;20042;-57
2022/06/13 13:50:13;;;;;;;3.75;1.13;;;24.80;59.10;;;;;;4946230;28;20039;-57
2022/06/13 13:52:43;;;;;;;6.45;1.85;;;26.30;55.60;;;;;;4944889;28;20039;-57
2022/06/13 13:55:21;;;;;;;4.38;1.20;;;27.50;50.40;;;;;;4968187;28;20039;-57